EDLW/DTM METAR and TAF weather

Enter ICAO airport designator
Station Type Date Time Source
EDLW METAR 2019/08/24 20:50 UTC NOAA

EDLW 242050Z 13004KT CAVOK 23/10 Q1019


Station Type Date Time Source
EDLW Decoded METAR 2019/08/24 20:50 UTC NOAA

Station name not available
Aug 24, 2019 - 04:50 PM EDT / 2019.08.24 2050 UTC
Wind: from the SE (130 degrees) at 5 MPH (4 KT):0
Visibility: greater than 7 mile(s):0
Temperature: 73 F (23 C)
Dew Point: 50 F (10 C)
Relative Humidity: 43%
Pressure (altimeter): 30.09 in. Hg (1019 hPa)
ob: EDLW 242050Z 13004KT CAVOK 23/10 Q1019
cycle: 21

Station Type Date Time Source
EDLW TAF 2019/08/24 18:27 UTC NOAA

TAF EDLW 241700Z 2418/2518 06008KT CAVOK
BECMG 2419/2421 11003KT
BECMG 2506/2509 05005KT

Example: see airport list